sensor_id;sensor_type;location;lat;lon;timestamp;pressure;altitude;pressure_sealevel;temperature
62845;BMP280;48929;47.910;20.390;2023-04-25T00:00:57;98254.13;;;12.69
62845;BMP280;48929;47.910;20.390;2023-04-25T00:11:17;98247.88;;;12.70
62845;BMP280;48929;47.910;20.390;2023-04-25T00:14:42;98240.44;;;12.69
62845;BMP280;48929;47.910;20.390;2023-04-25T00:21:36;98236.66;;;12.66
62845;BMP280;48929;47.910;20.390;2023-04-25T00:24:59;98236.34;;;12.68
62845;BMP280;48929;47.910;20.390;2023-04-25T00:32:18;98230.59;;;12.62
62845;BMP280;48929;47.910;20.390;2023-04-25T00:35:37;98240.63;;;12.64
62845;BMP280;48929;47.910;20.390;2023-04-25T00:38:46;98222.56;;;12.55
62845;BMP280;48929;47.910;20.390;2023-04-25T00:41:55;98227.13;;;12.58
62845;BMP280;48929;47.910;20.390;2023-04-25T00:45:00;98228.31;;;12.61
62845;BMP280;48929;47.910;20.390;2023-04-25T00:48:28;98222.28;;;12.57
62845;BMP280;48929;47.910;20.390;2023-04-25T00:52:07;98227.25;;;12.62
62845;BMP280;48929;47.910;20.390;2023-04-25T00:59:00;98224.56;;;12.58
62845;BMP280;48929;47.910;20.390;2023-04-25T01:01:33;98208.44;;;12.53
62845;BMP280;48929;47.910;20.390;2023-04-25T01:04:34;98215.59;;;12.56
62845;BMP280;48929;47.910;20.390;2023-04-25T01:07:12;98214.50;;;12.57
62845;BMP280;48929;47.910;20.390;2023-04-25T01:09:44;98202.97;;;12.54
62845;BMP280;48929;47.910;20.390;2023-04-25T01:12:22;98209.47;;;12.60
62845;BMP280;48929;47.910;20.390;2023-04-25T01:15:02;98201.91;;;12.55
62845;BMP280;48929;47.910;20.390;2023-04-25T01:17:34;98205.06;;;12.61
62845;BMP280;48929;47.910;20.390;2023-04-25T01:20:11;98205.25;;;12.56
62845;BMP280;48929;47.910;20.390;2023-04-25T01:22:58;98206.13;;;12.60
62845;BMP280;48929;47.910;20.390;2023-04-25T01:25:32;98192.22;;;12.52
62845;BMP280;48929;47.910;20.390;2023-04-25T01:28:05;98208.72;;;12.60
62845;BMP280;48929;47.910;20.390;2023-04-25T01:30:37;98199.31;;;12.55
62845;BMP280;48929;47.910;20.390;2023-04-25T01:33:17;98203.72;;;12.55
62845;BMP280;48929;47.910;20.390;2023-04-25T01:36:06;98193.13;;;12.48
62845;BMP280;48929;47.910;20.390;2023-04-25T01:38:49;98204.78;;;12.54
62845;BMP280;48929;47.910;20.390;2023-04-25T01:41:33;98192.38;;;12.47
62845;BMP280;48929;47.910;20.390;2023-04-25T01:44:13;98192.38;;;12.47
62845;BMP280;48929;47.910;20.390;2023-04-25T01:46:58;98192.81;;;12.49
62845;BMP280;48929;47.910;20.390;2023-04-25T01:49:27;98203.47;;;12.48
62845;BMP280;48929;47.910;20.390;2023-04-25T01:51:56;98202.31;;;12.45
62845;BMP280;48929;47.910;20.390;2023-04-25T01:54:31;98202.69;;;12.47
62845;BMP280;48929;47.910;20.390;2023-04-25T01:57:02;98203.00;;;12.45
62845;BMP280;48929;47.910;20.390;2023-04-25T01:59:36;98189.88;;;12.38
62845;BMP280;48929;47.910;20.390;2023-04-25T02:02:07;98191.25;;;12.36
62845;BMP280;48929;47.910;20.390;2023-04-25T02:04:46;98193.53;;;12.37
62845;BMP280;48929;47.910;20.390;2023-04-25T02:07:17;98187.03;;;12.31
62845;BMP280;48929;47.910;20.390;2023-04-25T02:10:00;98188.22;;;12.34
62845;BMP280;48929;47.910;20.390;2023-04-25T02:12:35;98188.53;;;12.32
62845;BMP280;48929;47.910;20.390;2023-04-25T02:15:05;98185.06;;;12.28
62845;BMP280;48929;47.910;20.390;2023-04-25T02:17:36;98189.59;;;12.31
62845;BMP280;48929;47.910;20.390;2023-04-25T02:20:11;98177.34;;;12.20
62845;BMP280;48929;47.910;20.390;2023-04-25T02:22:42;98183.72;;;12.22
62845;BMP280;48929;47.910;20.390;2023-04-25T02:25:15;98173.59;;;12.17
62845;BMP280;48929;47.910;20.390;2023-04-25T02:27:46;98169.94;;;12.18
62845;BMP280;48929;47.910;20.390;2023-04-25T02:30:22;98171.31;;;12.16
62845;BMP280;48929;47.910;20.390;2023-04-25T02:32:57;98176.94;;;12.18
62845;BMP280;48929;47.910;20.390;2023-04-25T02:35:31;98178.00;;;12.17
62845;BMP280;48929;47.910;20.390;2023-04-25T02:38:01;98176.28;;;12.21
62845;BMP280;48929;47.910;20.390;2023-04-25T02:40:35;98175.84;;;12.19
62845;BMP280;48929;47.910;20.390;2023-04-25T02:43:06;98165.53;;;12.19
62845;BMP280;48929;47.910;20.390;2023-04-25T02:45:39;98167.22;;;12.15
62845;BMP280;48929;47.910;20.390;2023-04-25T02:48:10;98166.91;;;12.16
62845;BMP280;48929;47.910;20.390;2023-04-25T02:50:39;98162.06;;;12.15
62845;BMP280;48929;47.910;20.390;2023-04-25T02:53:08;98159.59;;;12.18
62845;BMP280;48929;47.910;20.390;2023-04-25T02:55:39;98162.81;;;12.15
62845;BMP280;48929;47.910;20.390;2023-04-25T02:58:09;98163.28;;;12.17
62845;BMP280;48929;47.910;20.390;2023-04-25T03:00:38;98152.97;;;12.09
62845;BMP280;48929;47.910;20.390;2023-04-25T03:03:10;98159.47;;;12.15
62845;BMP280;48929;47.910;20.390;2023-04-25T03:05:40;98156.59;;;12.16
62845;BMP280;48929;47.910;20.390;2023-04-25T03:08:11;98157.66;;;12.15
62845;BMP280;48929;47.910;20.390;2023-04-25T03:10:43;98148.69;;;12.13
62845;BMP280;48929;47.910;20.390;2023-04-25T03:13:11;98144.16;;;12.10
62845;BMP280;48929;47.910;20.390;2023-04-25T03:15:40;98150.22;;;12.14
62845;BMP280;48929;47.910;20.390;2023-04-25T03:18:37;98144.16;;;12.10
62845;BMP280;48929;47.910;20.390;2023-04-25T03:21:40;98149.75;;;12.12
62845;BMP280;48929;47.910;20.390;2023-04-25T03:24:09;98147.81;;;12.09
62845;BMP280;48929;47.910;20.390;2023-04-25T03:26:40;98150.38;;;12.09
62845;BMP280;48929;47.910;20.390;2023-04-25T03:29:12;98151.00;;;12.06
62845;BMP280;48929;47.910;20.390;2023-04-25T03:31:40;98154.50;;;12.10
62845;BMP280;48929;47.910;20.390;2023-04-25T03:34:10;98149.75;;;12.12
62845;BMP280;48929;47.910;20.390;2023-04-25T03:36:39;98155.66;;;12.12
62845;BMP280;48929;47.910;20.390;2023-04-25T03:39:08;98145.06;;;12.05
62845;BMP280;48929;47.910;20.390;2023-04-25T03:41:41;98149.75;;;12.12
62845;BMP280;48929;47.910;20.390;2023-04-25T03:44:12;98141.44;;;12.06
62845;BMP280;48929;47.910;20.390;2023-04-25T03:46:48;98154.63;;;12.13
62845;BMP280;48929;47.910;20.390;2023-04-25T03:49:18;98135.97;;;12.08
62845;BMP280;48929;47.910;20.390;2023-04-25T03:51:49;98140.94;;;12.13
62845;BMP280;48929;47.910;20.390;2023-04-25T03:54:23;98145.34;;;12.12
62845;BMP280;48929;47.910;20.390;2023-04-25T03:56:57;98134.31;;;12.03
62845;BMP280;48929;47.910;20.390;2023-04-25T03:59:40;98144.00;;;12.06
62845;BMP280;48929;47.910;20.390;2023-04-25T04:02:24;98145.53;;;12.07
62845;BMP280;48929;47.910;20.390;2023-04-25T04:05:45;98147.22;;;12.03
62845;BMP280;48929;47.910;20.390;2023-04-25T04:08:54;98146.59;;;12.06
62845;BMP280;48929;47.910;20.390;2023-04-25T04:12:40;98150.25;;;12.05
62845;BMP280;48929;47.910;20.390;2023-04-25T04:15:48;98153.75;;;12.00
62845;BMP280;48929;47.910;20.390;2023-04-25T04:18:28;98153.13;;;12.03
62845;BMP280;48929;47.910;20.390;2023-04-25T04:21:20;98139.94;;;11.96
62845;BMP280;48929;47.910;20.390;2023-04-25T04:24:07;98142.22;;;11.98
62845;BMP280;48929;47.910;20.390;2023-04-25T04:26:54;98151.47;;;11.99
62845;BMP280;48929;47.910;20.390;2023-04-25T04:29:36;98143.50;;;11.92
62845;BMP280;48929;47.910;20.390;2023-04-25T04:32:08;98149.97;;;11.98
62845;BMP280;48929;47.910;20.390;2023-04-25T04:34:56;98137.88;;;11.90
62845;BMP280;48929;47.910;20.390;2023-04-25T04:37:52;98150.19;;;11.93
62845;BMP280;48929;47.910;20.390;2023-04-25T04:41:10;98155.00;;;11.94
62845;BMP280;48929;47.910;20.390;2023-04-25T04:44:22;98142.28;;;11.89
62845;BMP280;48929;47.910;20.390;2023-04-25T04:47:34;98144.25;;;11.92
62845;BMP280;48929;47.910;20.390;2023-04-25T04:50:48;98153.19;;;11.95
62845;BMP280;48929;47.910;20.390;2023-04-25T05:21:05;98147.50;;;11.81
62845;BMP280;48929;47.910;20.390;2023-04-25T05:48:11;98145.00;;;11.93
62845;BMP280;48929;47.910;20.390;2023-04-25T05:59:39;98136.56;;;12.04
62845;BMP280;48929;47.910;20.390;2023-04-25T06:02:13;98140.19;;;12.12
62845;BMP280;48929;47.910;20.390;2023-04-25T06:04:43;98145.63;;;12.19
62845;BMP280;48929;47.910;20.390;2023-04-25T06:07:18;98139.06;;;12.22
62845;BMP280;48929;47.910;20.390;2023-04-25T06:09:56;98139.50;;;12.24
62845;BMP280;48929;47.910;20.390;2023-04-25T06:12:34;98134.19;;;12.20
62845;BMP280;48929;47.910;20.390;2023-04-25T06:15:17;98136.69;;;12.17
62845;BMP280;48929;47.910;20.390;2023-04-25T06:17:55;98148.63;;;12.21
62845;BMP280;48929;47.910;20.390;2023-04-25T06:20:26;98146.34;;;12.20
62845;BMP280;48929;47.910;20.390;2023-04-25T06:22:59;98141.09;;;12.16
62845;BMP280;48929;47.910;20.390;2023-04-25T06:25:28;98153.03;;;12.21
62845;BMP280;48929;47.910;20.390;2023-04-25T06:27:57;98153.69;;;12.18
62845;BMP280;48929;47.910;20.390;2023-04-25T06:30:27;98152.97;;;12.09
62845;BMP280;48929;47.910;20.390;2023-04-25T06:32:55;98149.94;;;12.07
62845;BMP280;48929;47.910;20.390;2023-04-25T06:35:26;98154.22;;;12.02
62845;BMP280;48929;47.910;20.390;2023-04-25T06:38:24;98163.09;;;11.93
62845;BMP280;48929;47.910;20.390;2023-04-25T06:40:53;98155.50;;;11.88
62845;BMP280;48929;47.910;20.390;2023-04-25T06:43:23;98157.19;;;11.84
62845;BMP280;48929;47.910;20.390;2023-04-25T06:45:54;98156.59;;;11.78
62845;BMP280;48929;47.910;20.390;2023-04-25T06:48:23;98154.03;;;11.78
62845;BMP280;48929;47.910;20.390;2023-04-25T06:50:56;98147.50;;;11.72
62845;BMP280;48929;47.910;20.390;2023-04-25T06:53:33;98156.63;;;11.70
62845;BMP280;48929;47.910;20.390;2023-04-25T06:56:20;98150.31;;;11.67
62845;BMP280;48929;47.910;20.390;2023-04-25T06:59:21;98151.97;;;11.63
62845;BMP280;48929;47.910;20.390;2023-04-25T07:01:55;98149.84;;;11.65
62845;BMP280;48929;47.910;20.390;2023-04-25T07:04:28;98158.50;;;11.60
62845;BMP280;48929;47.910;20.390;2023-04-25T07:07:02;98153.47;;;11.64
62845;BMP280;48929;47.910;20.390;2023-04-25T07:09:32;98155.84;;;11.69
62845;BMP280;48929;47.910;20.390;2023-04-25T07:12:01;98151.50;;;11.61
62845;BMP280;48929;47.910;20.390;2023-04-25T07:14:29;98153.94;;;11.66
62845;BMP280;48929;47.910;20.390;2023-04-25T07:16:59;98152.88;;;11.67
62845;BMP280;48929;47.910;20.390;2023-04-25T07:19:27;98156.31;;;11.71
62845;BMP280;48929;47.910;20.390;2023-04-25T07:21:56;98155.09;;;11.69
62845;BMP280;48929;47.910;20.390;2023-04-25T07:24:27;98149.69;;;11.61
62845;BMP280;48929;47.910;20.390;2023-04-25T07:26:56;98153.03;;;11.62
62845;BMP280;48929;47.910;20.390;2023-04-25T07:29:28;98149.22;;;11.59
62845;BMP280;48929;47.910;20.390;2023-04-25T07:31:59;98154.25;;;11.65
62845;BMP280;48929;47.910;20.390;2023-04-25T07:34:35;98153.47;;;11.64
62845;BMP280;48929;47.910;20.390;2023-04-25T07:37:08;98156.97;;;11.59
62845;BMP280;48929;47.910;20.390;2023-04-25T07:39:56;98155.16;;;11.60
62845;BMP280;48929;47.910;20.390;2023-04-25T07:42:28;98158.97;;;11.54
62845;BMP280;48929;47.910;20.390;2023-04-25T07:44:57;98151.84;;;11.51
62845;BMP280;48929;47.910;20.390;2023-04-25T07:47:27;98151.38;;;11.57
62845;BMP280;48929;47.910;20.390;2023-04-25T07:50:02;98145.47;;;11.57
62845;BMP280;48929;47.910;20.390;2023-04-25T07:52:34;98157.28;;;11.58
62845;BMP280;48929;47.910;20.390;2023-04-25T07:55:33;98153.47;;;11.64
62845;BMP280;48929;47.910;20.390;2023-04-25T07:58:03;98162.75;;;11.65
62845;BMP280;48929;47.910;20.390;2023-04-25T08:00:32;98153.47;;;11.64
62845;BMP280;48929;47.910;20.390;2023-04-25T08:03:07;98148.03;;;11.57
62845;BMP280;48929;47.910;20.390;2023-04-25T08:05:36;98136.97;;;11.48
62845;BMP280;48929;47.910;20.390;2023-04-25T08:11:30;98153.50;;;11.55
62845;BMP280;48929;47.910;20.390;2023-04-25T08:14:34;98152.75;;;11.46
62845;BMP280;48929;47.910;20.390;2023-04-25T08:17:06;98161.88;;;11.44
62845;BMP280;48929;47.910;20.390;2023-04-25T08:20:04;98156.88;;;11.39
62845;BMP280;48929;47.910;20.390;2023-04-25T08:22:50;98155.09;;;11.22
62845;BMP280;48929;47.910;20.390;2023-04-25T08:25:28;98166.47;;;11.30
62845;BMP280;48929;47.910;20.390;2023-04-25T08:28:04;98167.38;;;11.25
62845;BMP280;48929;47.910;20.390;2023-04-25T08:38:50;98165.16;;;11.06
62845;BMP280;48929;47.910;20.390;2023-04-25T08:42:26;98176.81;;;11.12
62845;BMP280;48929;47.910;20.390;2023-04-25T08:49:30;98177.59;;;11.13
62845;BMP280;48929;47.910;20.390;2023-04-25T09:01:19;98197.25;;;11.26
62845;BMP280;48929;47.910;20.390;2023-04-25T09:13:10;98184.06;;;11.19
62845;BMP280;48929;47.910;20.390;2023-04-25T09:17:08;98192.13;;;11.09
62845;BMP280;48929;47.910;20.390;2023-04-25T09:23:40;98200.78;;;11.04
62845;BMP280;48929;47.910;20.390;2023-04-25T09:26:31;98201.06;;;11.03
62845;BMP280;48929;47.910;20.390;2023-04-25T09:29:16;98210.16;;;11.09
62845;BMP280;48929;47.910;20.390;2023-04-25T09:32:26;98214.88;;;11.15
62845;BMP280;48929;47.910;20.390;2023-04-25T09:35:02;98203.66;;;11.11
62845;BMP280;48929;47.910;20.390;2023-04-25T09:37:40;98197.56;;;11.16
62845;BMP280;48929;47.910;20.390;2023-04-25T09:40:45;98200.91;;;11.16
62845;BMP280;48929;47.910;20.390;2023-04-25T09:43:58;98203.47;;;11.25
62845;BMP280;48929;47.910;20.390;2023-04-25T09:46:42;98216.84;;;11.36
62845;BMP280;48929;47.910;20.390;2023-04-25T09:49:58;98206.06;;;11.34
62845;BMP280;48929;47.910;20.390;2023-04-25T09:57:11;98210.84;;;11.52
62845;BMP280;48929;47.910;20.390;2023-04-25T10:00:06;98216.47;;;11.63
62845;BMP280;48929;47.910;20.390;2023-04-25T10:03:24;98228.72;;;11.75
62845;BMP280;48929;47.910;20.390;2023-04-25T10:06:44;98210.97;;;11.73
62845;BMP280;48929;47.910;20.390;2023-04-25T10:09:28;98216.56;;;11.75
62845;BMP280;48929;47.910;20.390;2023-04-25T10:12:06;98216.13;;;11.82
62845;BMP280;48929;47.910;20.390;2023-04-25T10:14:56;98230.22;;;11.84
62845;BMP280;48929;47.910;20.390;2023-04-25T10:17:36;98228.88;;;11.78
62845;BMP280;48929;47.910;20.390;2023-04-25T10:20:12;98226.47;;;11.73
62845;BMP280;48929;47.910;20.390;2023-04-25T10:23:54;98229.84;;;11.65
62845;BMP280;48929;47.910;20.390;2023-04-25T10:27:04;98218.00;;;11.64
62845;BMP280;48929;47.910;20.390;2023-04-25T10:30:00;98216.78;;;11.61
62845;BMP280;48929;47.910;20.390;2023-04-25T10:33:37;98221.44;;;11.68
62845;BMP280;48929;47.910;20.390;2023-04-25T10:36:32;98222.09;;;11.65
62845;BMP280;48929;47.910;20.390;2023-04-25T10:39:40;98222.22;;;11.60
62845;BMP280;48929;47.910;20.390;2023-04-25T10:42:19;98233.34;;;11.52
62845;BMP280;48929;47.910;20.390;2023-04-25T10:45:11;98232.13;;;11.49
62845;BMP280;48929;47.910;20.390;2023-04-25T10:51:42;98229.53;;;11.49
62845;BMP280;48929;47.910;20.390;2023-04-25T10:54:36;98244.09;;;11.63
62845;BMP280;48929;47.910;20.390;2023-04-25T10:57:32;98237.13;;;11.63
62845;BMP280;48929;47.910;20.390;2023-04-25T11:00:41;98242.56;;;11.61
62845;BMP280;48929;47.910;20.390;2023-04-25T11:03:25;98240.72;;;11.71
62845;BMP280;48929;47.910;20.390;2023-04-25T11:06:09;98231.06;;;11.59
62845;BMP280;48929;47.910;20.390;2023-04-25T11:08:48;98234.25;;;11.56
62845;BMP280;48929;47.910;20.390;2023-04-25T11:11:39;98251.25;;;11.66
62845;BMP280;48929;47.910;20.390;2023-04-25T11:14:15;98246.38;;;11.64
62845;BMP280;48929;47.910;20.390;2023-04-25T11:17:06;98247.28;;;11.59
62845;BMP280;48929;47.910;20.390;2023-04-25T11:19:49;98243.63;;;11.60
62845;BMP280;48929;47.910;20.390;2023-04-25T11:22:37;98257.00;;;11.63
62845;BMP280;48929;47.910;20.390;2023-04-25T11:25:25;98264.56;;;11.68
62845;BMP280;48929;47.910;20.390;2023-04-25T11:28:25;98267.19;;;11.59
62845;BMP280;48929;47.910;20.390;2023-04-25T11:31:56;98265.66;;;11.58
62845;BMP280;48929;47.910;20.390;2023-04-25T11:35:40;98267.19;;;11.59
62845;BMP280;48929;47.910;20.390;2023-04-25T11:42:17;98277.47;;;11.68
62845;BMP280;48929;47.910;20.390;2023-04-25T11:45:49;98279.44;;;11.79
62845;BMP280;48929;47.910;20.390;2023-04-25T11:48:38;98267.59;;;11.70
62845;BMP280;48929;47.910;20.390;2023-04-25T11:51:40;98273.03;;;11.77
62845;BMP280;48929;47.910;20.390;2023-04-25T11:54:40;98279.25;;;11.76
62845;BMP280;48929;47.910;20.390;2023-04-25T11:57:29;98275.78;;;11.72
62845;BMP280;48929;47.910;20.390;2023-04-25T12:00:59;98292.75;;;11.90
62845;BMP280;48929;47.910;20.390;2023-04-25T12:03:53;98289.25;;;11.94
62845;BMP280;48929;47.910;20.390;2023-04-25T12:07:02;98288.63;;;11.97
62845;BMP280;48929;47.910;20.390;2023-04-25T12:10:14;98281.50;;;12.03
62845;BMP280;48929;47.910;20.390;2023-04-25T12:13:18;98295.84;;;12.21
62845;BMP280;48929;47.910;20.390;2023-04-25T12:16:11;98307.22;;;12.20
62845;BMP280;48929;47.910;20.390;2023-04-25T12:19:08;98296.53;;;12.10
62845;BMP280;48929;47.910;20.390;2023-04-25T12:21:41;98300.31;;;12.03
62845;BMP280;48929;47.910;20.390;2023-04-25T12:24:51;98291.66;;;11.99
62845;BMP280;48929;47.910;20.390;2023-04-25T12:28:15;98299.63;;;11.86
62845;BMP280;48929;47.910;20.390;2023-04-25T12:30:57;98300.22;;;11.83
62845;BMP280;48929;47.910;20.390;2023-04-25T12:33:57;98287.47;;;11.78
62845;BMP280;48929;47.910;20.390;2023-04-25T12:36:55;98297.97;;;11.73
62845;BMP280;48929;47.910;20.390;2023-04-25T12:39:38;98303.88;;;11.73
62845;BMP280;48929;47.910;20.390;2023-04-25T12:42:07;98300.06;;;11.71
62845;BMP280;48929;47.910;20.390;2023-04-25T12:44:40;98304.81;;;11.60
62845;BMP280;48929;47.910;20.390;2023-04-25T12:47:09;98306.47;;;11.47
62845;BMP280;48929;47.910;20.390;2023-04-25T12:49:43;98290.38;;;11.42
62845;BMP280;48929;47.910;20.390;2023-04-25T12:52:27;98289.47;;;11.46
62845;BMP280;48929;47.910;20.390;2023-04-25T12:55:19;98277.97;;;11.44
62845;BMP280;48929;47.910;20.390;2023-04-25T12:57:53;98286.59;;;11.48
62845;BMP280;48929;47.910;20.390;2023-04-25T13:01:49;98266.75;;;11.40
62845;BMP280;48929;47.910;20.390;2023-04-25T13:04:25;98272.78;;;11.44
62845;BMP280;48929;47.910;20.390;2023-04-25T13:07:14;98274.91;;;11.50
62845;BMP280;48929;47.910;20.390;2023-04-25T13:09:57;98271.28;;;11.51
62845;BMP280;48929;47.910;20.390;2023-04-25T13:12:28;98277.50;;;11.59
62845;BMP280;48929;47.910;20.390;2023-04-25T13:15:15;98269.91;;;11.63
62845;BMP280;48929;47.910;20.390;2023-04-25T13:18:09;98278.97;;;11.77
62845;BMP280;48929;47.910;20.390;2023-04-25T13:20:49;98286.09;;;11.89
62845;BMP280;48929;47.910;20.390;2023-04-25T13:23:31;98280.09;;;12.14
62845;BMP280;48929;47.910;20.390;2023-04-25T13:26:10;98284.84;;;12.41
62845;BMP280;48929;47.910;20.390;2023-04-25T13:28:46;98289.16;;;12.58
62845;BMP280;48929;47.910;20.390;2023-04-25T13:31:16;98289.28;;;12.62
62845;BMP280;48929;47.910;20.390;2023-04-25T13:34:14;98288.03;;;12.68
62845;BMP280;48929;47.910;20.390;2023-04-25T13:36:53;98295.84;;;12.80
62845;BMP280;48929;47.910;20.390;2023-04-25T13:39:24;98294.97;;;12.76
62845;BMP280;48929;47.910;20.390;2023-04-25T13:41:54;98299.59;;;12.70
62845;BMP280;48929;47.910;20.390;2023-04-25T13:44:23;98298.19;;;12.73
62845;BMP280;48929;47.910;20.390;2023-04-25T13:46:54;98310.75;;;12.83
62845;BMP280;48929;47.910;20.390;2023-04-25T13:49:23;98310.56;;;12.88
62845;BMP280;48929;47.910;20.390;2023-04-25T13:51:52;98316.38;;;12.85
62845;BMP280;48929;47.910;20.390;2023-04-25T13:54:23;98316.22;;;12.81
62845;BMP280;48929;47.910;20.390;2023-04-25T13:56:53;98322.59;;;12.84
62845;BMP280;48929;47.910;20.390;2023-04-25T13:59:28;98332.50;;;12.82
62845;BMP280;48929;47.910;20.390;2023-04-25T14:02:02;98327.19;;;12.78
62845;BMP280;48929;47.910;20.390;2023-04-25T14:04:31;98334.50;;;12.76
62845;BMP280;48929;47.910;20.390;2023-04-25T14:07:00;98337.66;;;12.53
62845;BMP280;48929;47.910;20.390;2023-04-25T14:09:30;98337.44;;;12.37
62845;BMP280;48929;47.910;20.390;2023-04-25T14:11:59;98340.94;;;12.32
62845;BMP280;48929;47.910;20.390;2023-04-25T14:14:32;98337.16;;;12.21
62845;BMP280;48929;47.910;20.390;2023-04-25T14:17:01;98340.25;;;12.15
62845;BMP280;48929;47.910;20.390;2023-04-25T14:19:30;98338.13;;;11.99
62845;BMP280;48929;47.910;20.390;2023-04-25T14:21:59;98344.22;;;11.95
62845;BMP280;48929;47.910;20.390;2023-04-25T14:24:27;98339.56;;;11.88
62845;BMP280;48929;47.910;20.390;2023-04-25T14:26:59;98344.41;;;11.81
62845;BMP280;48929;47.910;20.390;2023-04-25T14:29:29;98345.19;;;11.82
62845;BMP280;48929;47.910;20.390;2023-04-25T14:31:58;98345.31;;;11.77
62845;BMP280;48929;47.910;20.390;2023-04-25T14:34:27;98346.53;;;11.71
62845;BMP280;48929;47.910;20.390;2023-04-25T14:36:56;98351.09;;;11.74
62845;BMP280;48929;47.910;20.390;2023-04-25T14:39:27;98341.38;;;11.62
62845;BMP280;48929;47.910;20.390;2023-04-25T14:41:55;98354.59;;;11.52
62845;BMP280;48929;47.910;20.390;2023-04-25T14:48:16;98353.50;;;11.53
62845;BMP280;48929;47.910;20.390;2023-04-25T14:50:46;98361.56;;;11.60
62845;BMP280;48929;47.910;20.390;2023-04-25T14:53:15;98352.47;;;11.54
62845;BMP280;48929;47.910;20.390;2023-04-25T14:56:03;98353.53;;;11.61
62845;BMP280;48929;47.910;20.390;2023-04-25T14:59:07;98347.88;;;11.68
62845;BMP280;48929;47.910;20.390;2023-04-25T15:02:02;98353.53;;;11.79
62845;BMP280;48929;47.910;20.390;2023-04-25T15:05:13;98342.56;;;11.90
62845;BMP280;48929;47.910;20.390;2023-04-25T15:07:50;98355.75;;;12.06
62845;BMP280;48929;47.910;20.390;2023-04-25T15:10:59;98341.00;;;12.15
62845;BMP280;48929;47.910;20.390;2023-04-25T15:13:29;98349.31;;;12.29
62845;BMP280;48929;47.910;20.390;2023-04-25T15:15:58;98350.38;;;12.20
62845;BMP280;48929;47.910;20.390;2023-04-25T15:18:28;98339.56;;;12.43
62845;BMP280;48929;47.910;20.390;2023-04-25T15:20:58;98351.94;;;12.59
